sensor_id;sensor_type;location;lat;lon;timestamp;temperature;humidity
69328;DHT22;56472;52.114;5.492;2023-07-08T00:00:48;24.70;50.50
69328;DHT22;56472;52.114;5.492;2023-07-08T00:03:17;24.70;50.40
69328;DHT22;56472;52.114;5.492;2023-07-08T00:05:45;24.70;50.10
69328;DHT22;56472;52.114;5.492;2023-07-08T00:08:17;24.70;49.80
69328;DHT22;56472;52.114;5.492;2023-07-08T00:10:45;24.70;49.60
69328;DHT22;56472;52.114;5.492;2023-07-08T00:13:12;24.70;49.50
69328;DHT22;56472;52.114;5.492;2023-07-08T00:15:40;24.70;49.40
69328;DHT22;56472;52.114;5.492;2023-07-08T00:18:15;24.70;49.40
69328;DHT22;56472;52.114;5.492;2023-07-08T00:20:50;24.60;49.20
69328;DHT22;56472;52.114;5.492;2023-07-08T00:23:17;24.60;49.30
69328;DHT22;56472;52.114;5.492;2023-07-08T00:25:48;24.60;49.40
69328;DHT22;56472;52.114;5.492;2023-07-08T00:28:18;24.60;49.40
69328;DHT22;56472;52.114;5.492;2023-07-08T00:30:47;24.60;49.50
69328;DHT22;56472;52.114;5.492;2023-07-08T00:33:15;24.50;49.60
69328;DHT22;56472;52.114;5.492;2023-07-08T00:35:45;24.50;49.60
69328;DHT22;56472;52.114;5.492;2023-07-08T00:38:19;24.40;50.40
69328;DHT22;56472;52.114;5.492;2023-07-08T00:41:10;24.40;49.40
69328;DHT22;56472;52.114;5.492;2023-07-08T00:43:38;24.40;49.30
69328;DHT22;56472;52.114;5.492;2023-07-08T00:51:44;24.30;49.40
69328;DHT22;56472;52.114;5.492;2023-07-08T00:56:58;24.30;49.50
69328;DHT22;56472;52.114;5.492;2023-07-08T00:59:32;24.30;49.40
69328;DHT22;56472;52.114;5.492;2023-07-08T01:02:03;24.20;49.40
69328;DHT22;56472;52.114;5.492;2023-07-08T01:05:17;24.20;49.40
69328;DHT22;56472;52.114;5.492;2023-07-08T01:07:25;24.20;49.40
69328;DHT22;56472;52.114;5.492;2023-07-08T01:09:57;24.20;49.30
69328;DHT22;56472;52.114;5.492;2023-07-08T01:12:29;24.20;49.40
69328;DHT22;56472;52.114;5.492;2023-07-08T01:14:59;24.20;49.50
69328;DHT22;56472;52.114;5.492;2023-07-08T01:17:29;24.10;49.50
69328;DHT22;56472;52.114;5.492;2023-07-08T01:20:01;24.10;49.50
69328;DHT22;56472;52.114;5.492;2023-07-08T01:22:37;24.10;49.50
69328;DHT22;56472;52.114;5.492;2023-07-08T01:25:05;24.10;49.60
69328;DHT22;56472;52.114;5.492;2023-07-08T01:27:35;24.10;49.70
69328;DHT22;56472;52.114;5.492;2023-07-08T01:30:04;24.10;49.80
69328;DHT22;56472;52.114;5.492;2023-07-08T01:32:36;24.00;49.70
69328;DHT22;56472;52.114;5.492;2023-07-08T01:35:04;24.00;49.70
69328;DHT22;56472;52.114;5.492;2023-07-08T01:37:37;24.00;49.70
69328;DHT22;56472;52.114;5.492;2023-07-08T01:42:51;24.00;50.00
69328;DHT22;56472;52.114;5.492;2023-07-08T01:45:20;23.90;50.00
69328;DHT22;56472;52.114;5.492;2023-07-08T01:47:59;23.90;50.10
69328;DHT22;56472;52.114;5.492;2023-07-08T01:50:28;23.90;50.20
69328;DHT22;56472;52.114;5.492;2023-07-08T01:52:58;23.90;50.20
69328;DHT22;56472;52.114;5.492;2023-07-08T01:55:26;23.90;50.30
69328;DHT22;56472;52.114;5.492;2023-07-08T01:57:56;23.90;50.40
69328;DHT22;56472;52.114;5.492;2023-07-08T02:00:23;23.90;50.30
69328;DHT22;56472;52.114;5.492;2023-07-08T02:02:50;23.90;50.30
69328;DHT22;56472;52.114;5.492;2023-07-08T02:05:18;23.80;50.30
69328;DHT22;56472;52.114;5.492;2023-07-08T02:07:45;23.80;50.30
69328;DHT22;56472;52.114;5.492;2023-07-08T02:10:12;23.90;50.40
69328;DHT22;56472;52.114;5.492;2023-07-08T02:12:39;23.80;50.40
69328;DHT22;56472;52.114;5.492;2023-07-08T02:15:09;23.80;50.50
69328;DHT22;56472;52.114;5.492;2023-07-08T02:17:36;23.80;50.60
69328;DHT22;56472;52.114;5.492;2023-07-08T02:20:04;23.80;50.70
69328;DHT22;56472;52.114;5.492;2023-07-08T02:22:31;23.80;50.80
69328;DHT22;56472;52.114;5.492;2023-07-08T02:24:58;23.80;50.80
69328;DHT22;56472;52.114;5.492;2023-07-08T02:27:25;23.80;50.90
69328;DHT22;56472;52.114;5.492;2023-07-08T02:29:52;23.80;50.90
69328;DHT22;56472;52.114;5.492;2023-07-08T02:32:19;23.70;50.90
69328;DHT22;56472;52.114;5.492;2023-07-08T02:34:46;23.80;51.00
69328;DHT22;56472;52.114;5.492;2023-07-08T02:37:13;23.80;51.10
69328;DHT22;56472;52.114;5.492;2023-07-08T02:39:40;23.70;51.10
69328;DHT22;56472;52.114;5.492;2023-07-08T02:42:07;23.70;51.10
69328;DHT22;56472;52.114;5.492;2023-07-08T02:44:35;23.70;51.10
69328;DHT22;56472;52.114;5.492;2023-07-08T02:47:02;23.70;51.20
69328;DHT22;56472;52.114;5.492;2023-07-08T02:49:30;23.70;51.20
69328;DHT22;56472;52.114;5.492;2023-07-08T02:51:57;23.70;51.30
69328;DHT22;56472;52.114;5.492;2023-07-08T02:54:24;23.60;51.20
69328;DHT22;56472;52.114;5.492;2023-07-08T02:56:51;23.60;51.20
69328;DHT22;56472;52.114;5.492;2023-07-08T02:59:18;23.60;51.20
69328;DHT22;56472;52.114;5.492;2023-07-08T03:01:45;23.60;51.20
69328;DHT22;56472;52.114;5.492;2023-07-08T03:04:14;23.60;51.20
69328;DHT22;56472;52.114;5.492;2023-07-08T03:06:42;23.60;51.30
69328;DHT22;56472;52.114;5.492;2023-07-08T03:09:11;23.60;51.40
69328;DHT22;56472;52.114;5.492;2023-07-08T03:11:39;23.50;51.40
69328;DHT22;56472;52.114;5.492;2023-07-08T03:14:07;23.50;51.30
69328;DHT22;56472;52.114;5.492;2023-07-08T03:16:35;23.50;51.40
69328;DHT22;56472;52.114;5.492;2023-07-08T03:19:02;23.50;51.50
69328;DHT22;56472;52.114;5.492;2023-07-08T03:21:29;23.50;51.50
69328;DHT22;56472;52.114;5.492;2023-07-08T03:23:56;23.50;51.50
69328;DHT22;56472;52.114;5.492;2023-07-08T03:26:25;23.50;51.50
69328;DHT22;56472;52.114;5.492;2023-07-08T03:28:56;23.50;51.50
69328;DHT22;56472;52.114;5.492;2023-07-08T03:31:24;23.50;51.50
69328;DHT22;56472;52.114;5.492;2023-07-08T03:33:52;23.40;51.50
69328;DHT22;56472;52.114;5.492;2023-07-08T03:36:20;23.40;51.50
69328;DHT22;56472;52.114;5.492;2023-07-08T03:38:52;23.40;51.50
69328;DHT22;56472;52.114;5.492;2023-07-08T03:41:19;23.40;51.60
69328;DHT22;56472;52.114;5.492;2023-07-08T03:43:46;23.40;51.60
69328;DHT22;56472;52.114;5.492;2023-07-08T03:46:14;23.40;51.70
69328;DHT22;56472;52.114;5.492;2023-07-08T03:48:41;23.40;51.80
69328;DHT22;56472;52.114;5.492;2023-07-08T03:51:27;23.30;51.80
69328;DHT22;56472;52.114;5.492;2023-07-08T03:53:54;23.30;51.80
69328;DHT22;56472;52.114;5.492;2023-07-08T03:56:22;23.30;51.90
69328;DHT22;56472;52.114;5.492;2023-07-08T03:58:50;23.30;51.90
69328;DHT22;56472;52.114;5.492;2023-07-08T04:01:22;23.30;52.00
69328;DHT22;56472;52.114;5.492;2023-07-08T04:03:56;23.30;52.10
69328;DHT22;56472;52.114;5.492;2023-07-08T04:06:24;23.20;52.10
69328;DHT22;56472;52.114;5.492;2023-07-08T04:08:51;23.20;52.10
69328;DHT22;56472;52.114;5.492;2023-07-08T04:11:21;23.20;52.20
69328;DHT22;56472;52.114;5.492;2023-07-08T04:13:49;23.20;52.20
69328;DHT22;56472;52.114;5.492;2023-07-08T04:16:20;23.20;52.20
69328;DHT22;56472;52.114;5.492;2023-07-08T04:18:48;23.20;52.30
69328;DHT22;56472;52.114;5.492;2023-07-08T04:21:18;23.20;52.40
69328;DHT22;56472;52.114;5.492;2023-07-08T04:23:48;23.20;52.40
69328;DHT22;56472;52.114;5.492;2023-07-08T04:26:15;23.20;52.50
69328;DHT22;56472;52.114;5.492;2023-07-08T04:28:42;23.10;52.50
69328;DHT22;56472;52.114;5.492;2023-07-08T04:31:09;23.10;52.50
69328;DHT22;56472;52.114;5.492;2023-07-08T04:33:37;23.10;52.50
69328;DHT22;56472;52.114;5.492;2023-07-08T04:36:07;23.10;52.70
69328;DHT22;56472;52.114;5.492;2023-07-08T04:38:36;23.10;52.80
69328;DHT22;56472;52.114;5.492;2023-07-08T04:41:03;23.10;52.80
69328;DHT22;56472;52.114;5.492;2023-07-08T04:43:30;23.10;52.90
69328;DHT22;56472;52.114;5.492;2023-07-08T04:45:57;23.10;53.10
69328;DHT22;56472;52.114;5.492;2023-07-08T04:48:25;23.00;53.20
69328;DHT22;56472;52.114;5.492;2023-07-08T04:50:52;23.00;53.40
69328;DHT22;56472;52.114;5.492;2023-07-08T04:53:20;23.00;53.50
69328;DHT22;56472;52.114;5.492;2023-07-08T04:55:54;23.00;53.60
69328;DHT22;56472;52.114;5.492;2023-07-08T04:58:22;23.10;54.70
69328;DHT22;56472;52.114;5.492;2023-07-08T05:00:49;23.10;53.80
69328;DHT22;56472;52.114;5.492;2023-07-08T05:03:16;23.10;53.90
69328;DHT22;56472;52.114;5.492;2023-07-08T05:05:43;23.10;54.00
69328;DHT22;56472;52.114;5.492;2023-07-08T05:08:12;23.10;54.10
69328;DHT22;56472;52.114;5.492;2023-07-08T05:10:39;23.10;54.10
69328;DHT22;56472;52.114;5.492;2023-07-08T05:13:06;23.10;54.20
69328;DHT22;56472;52.114;5.492;2023-07-08T05:15:33;23.10;54.20
69328;DHT22;56472;52.114;5.492;2023-07-08T05:18:00;23.10;54.20
69328;DHT22;56472;52.114;5.492;2023-07-08T05:20:27;23.10;55.30
69328;DHT22;56472;52.114;5.492;2023-07-08T05:22:54;23.10;54.50
69328;DHT22;56472;52.114;5.492;2023-07-08T05:25:21;23.10;54.50
69328;DHT22;56472;52.114;5.492;2023-07-08T05:27:48;23.10;54.40
69328;DHT22;56472;52.114;5.492;2023-07-08T05:30:17;23.10;54.40
69328;DHT22;56472;52.114;5.492;2023-07-08T05:32:45;23.10;54.50
69328;DHT22;56472;52.114;5.492;2023-07-08T05:35:12;23.10;54.80
69328;DHT22;56472;52.114;5.492;2023-07-08T05:37:39;23.10;54.80
69328;DHT22;56472;52.114;5.492;2023-07-08T05:40:10;23.10;54.80
69328;DHT22;56472;52.114;5.492;2023-07-08T05:42:37;23.10;54.80
69328;DHT22;56472;52.114;5.492;2023-07-08T05:45:04;23.20;54.80
69328;DHT22;56472;52.114;5.492;2023-07-08T05:47:33;23.20;54.80
69328;DHT22;56472;52.114;5.492;2023-07-08T05:50:00;23.20;54.80
69328;DHT22;56472;52.114;5.492;2023-07-08T05:52:27;23.20;54.90
69328;DHT22;56472;52.114;5.492;2023-07-08T05:54:54;23.20;54.90
69328;DHT22;56472;52.114;5.492;2023-07-08T05:57:22;23.20;54.90
69328;DHT22;56472;52.114;5.492;2023-07-08T05:59:50;23.20;54.90
69328;DHT22;56472;52.114;5.492;2023-07-08T06:02:19;23.30;54.90
69328;DHT22;56472;52.114;5.492;2023-07-08T06:04:48;23.30;55.00
69328;DHT22;56472;52.114;5.492;2023-07-08T06:07:15;23.30;55.00
69328;DHT22;56472;52.114;5.492;2023-07-08T06:09:43;23.30;55.10
69328;DHT22;56472;52.114;5.492;2023-07-08T06:12:11;23.40;55.20
69328;DHT22;56472;52.114;5.492;2023-07-08T06:14:38;23.40;55.30
69328;DHT22;56472;52.114;5.492;2023-07-08T06:17:06;23.40;55.30
69328;DHT22;56472;52.114;5.492;2023-07-08T06:19:33;23.40;55.40
69328;DHT22;56472;52.114;5.492;2023-07-08T06:22:00;23.40;55.40
69328;DHT22;56472;52.114;5.492;2023-07-08T06:24:47;23.50;55.40
69328;DHT22;56472;52.114;5.492;2023-07-08T06:27:14;23.50;55.30
69328;DHT22;56472;52.114;5.492;2023-07-08T06:29:42;23.50;55.40
69328;DHT22;56472;52.114;5.492;2023-07-08T06:32:09;23.50;55.40
69328;DHT22;56472;52.114;5.492;2023-07-08T06:34:36;23.50;55.50
69328;DHT22;56472;52.114;5.492;2023-07-08T06:37:03;23.50;55.50
69328;DHT22;56472;52.114;5.492;2023-07-08T06:39:32;23.50;55.50
69328;DHT22;56472;52.114;5.492;2023-07-08T06:41:59;23.60;55.60
69328;DHT22;56472;52.114;5.492;2023-07-08T06:44:31;23.60;55.50
69328;DHT22;56472;52.114;5.492;2023-07-08T06:46:57;23.60;55.50
69328;DHT22;56472;52.114;5.492;2023-07-08T06:49:24;23.60;55.50
69328;DHT22;56472;52.114;5.492;2023-07-08T06:51:51;23.60;55.60
69328;DHT22;56472;52.114;5.492;2023-07-08T06:54:18;23.60;55.70
69328;DHT22;56472;52.114;5.492;2023-07-08T06:56:45;23.60;55.80
69328;DHT22;56472;52.114;5.492;2023-07-08T06:59:12;23.70;55.90
69328;DHT22;56472;52.114;5.492;2023-07-08T07:01:39;23.70;56.00
69328;DHT22;56472;52.114;5.492;2023-07-08T07:04:06;23.70;56.00
69328;DHT22;56472;52.114;5.492;2023-07-08T07:06:33;23.80;56.10
69328;DHT22;56472;52.114;5.492;2023-07-08T07:09:01;23.80;56.10
69328;DHT22;56472;52.114;5.492;2023-07-08T07:11:28;23.80;56.10
69328;DHT22;56472;52.114;5.492;2023-07-08T07:13:55;23.80;56.10
69328;DHT22;56472;52.114;5.492;2023-07-08T07:16:23;23.80;56.10
69328;DHT22;56472;52.114;5.492;2023-07-08T07:18:50;23.90;56.10
69328;DHT22;56472;52.114;5.492;2023-07-08T07:21:18;23.90;56.20
69328;DHT22;56472;52.114;5.492;2023-07-08T07:23:45;23.90;56.20
69328;DHT22;56472;52.114;5.492;2023-07-08T07:26:12;23.90;56.20
69328;DHT22;56472;52.114;5.492;2023-07-08T07:28:39;23.90;56.20
69328;DHT22;56472;52.114;5.492;2023-07-08T07:31:06;24.00;56.30
69328;DHT22;56472;52.114;5.492;2023-07-08T07:33:34;24.00;56.30
69328;DHT22;56472;52.114;5.492;2023-07-08T07:36:01;24.00;56.30
69328;DHT22;56472;52.114;5.492;2023-07-08T07:38:28;24.10;56.20
69328;DHT22;56472;52.114;5.492;2023-07-08T07:40:56;24.10;56.20
69328;DHT22;56472;52.114;5.492;2023-07-08T07:43:23;24.10;56.20
69328;DHT22;56472;52.114;5.492;2023-07-08T07:45:53;24.10;56.30
69328;DHT22;56472;52.114;5.492;2023-07-08T07:48:20;24.10;56.30
69328;DHT22;56472;52.114;5.492;2023-07-08T07:50:48;24.10;56.30
69328;DHT22;56472;52.114;5.492;2023-07-08T07:53:17;24.20;56.40
69328;DHT22;56472;52.114;5.492;2023-07-08T07:55:44;24.20;56.30
69328;DHT22;56472;52.114;5.492;2023-07-08T07:58:11;24.20;56.30
69328;DHT22;56472;52.114;5.492;2023-07-08T08:00:39;24.20;56.50
69328;DHT22;56472;52.114;5.492;2023-07-08T08:03:06;24.20;56.60
69328;DHT22;56472;52.114;5.492;2023-07-08T08:05:33;24.20;56.60
69328;DHT22;56472;52.114;5.492;2023-07-08T08:08:00;24.30;56.70
69328;DHT22;56472;52.114;5.492;2023-07-08T08:10:27;24.30;56.70
69328;DHT22;56472;52.114;5.492;2023-07-08T08:12:54;24.30;56.70
69328;DHT22;56472;52.114;5.492;2023-07-08T08:15:22;24.30;56.80
69328;DHT22;56472;52.114;5.492;2023-07-08T08:17:49;24.40;56.90
69328;DHT22;56472;52.114;5.492;2023-07-08T08:20:20;24.30;56.70
69328;DHT22;56472;52.114;5.492;2023-07-08T08:22:47;24.40;56.80
69328;DHT22;56472;52.114;5.492;2023-07-08T08:25:18;24.40;56.80
69328;DHT22;56472;52.114;5.492;2023-07-08T08:27:46;24.40;56.80
69328;DHT22;56472;52.114;5.492;2023-07-08T08:30:13;24.40;56.80
69328;DHT22;56472;52.114;5.492;2023-07-08T08:32:40;24.40;56.90
69328;DHT22;56472;52.114;5.492;2023-07-08T08:35:07;24.40;57.00
69328;DHT22;56472;52.114;5.492;2023-07-08T08:37:34;24.40;57.10
69328;DHT22;56472;52.114;5.492;2023-07-08T08:40:01;24.40;57.10
69328;DHT22;56472;52.114;5.492;2023-07-08T08:42:44;24.40;57.20
69328;DHT22;56472;52.114;5.492;2023-07-08T08:45:17;24.50;57.20
69328;DHT22;56472;52.114;5.492;2023-07-08T08:47:59;24.50;57.30
69328;DHT22;56472;52.114;5.492;2023-07-08T08:50:34;24.60;57.50
69328;DHT22;56472;52.114;5.492;2023-07-08T08:53:05;24.60;57.50
69328;DHT22;56472;52.114;5.492;2023-07-08T08:55:36;24.60;57.50
69328;DHT22;56472;52.114;5.492;2023-07-08T08:58:38;24.60;57.50
69328;DHT22;56472;52.114;5.492;2023-07-08T09:01:03;24.60;57.40
69328;DHT22;56472;52.114;5.492;2023-07-08T09:03:48;24.60;57.40
69328;DHT22;56472;52.114;5.492;2023-07-08T09:06:30;24.60;57.10
69328;DHT22;56472;52.114;5.492;2023-07-08T09:09:00;24.60;56.90
69328;DHT22;56472;52.114;5.492;2023-07-08T09:11:51;24.60;56.90
69328;DHT22;56472;52.114;5.492;2023-07-08T09:14:26;24.60;56.90
69328;DHT22;56472;52.114;5.492;2023-07-08T09:23:11;24.60;56.60
69328;DHT22;56472;52.114;5.492;2023-07-08T09:25:46;24.70;56.40
69328;DHT22;56472;52.114;5.492;2023-07-08T09:28:15;24.70;56.40
69328;DHT22;56472;52.114;5.492;2023-07-08T09:30:47;24.70;56.30
69328;DHT22;56472;52.114;5.492;2023-07-08T09:33:14;24.70;56.30
69328;DHT22;56472;52.114;5.492;2023-07-08T09:35:47;24.70;56.20
69328;DHT22;56472;52.114;5.492;2023-07-08T09:38:18;24.80;56.20
69328;DHT22;56472;52.114;5.492;2023-07-08T09:40:50;24.80;56.20
69328;DHT22;56472;52.114;5.492;2023-07-08T09:43:38;24.80;56.10
69328;DHT22;56472;52.114;5.492;2023-07-08T09:46:11;24.80;56.00
69328;DHT22;56472;52.114;5.492;2023-07-08T09:48:38;24.80;55.90
69328;DHT22;56472;52.114;5.492;2023-07-08T09:51:05;24.80;55.80
69328;DHT22;56472;52.114;5.492;2023-07-08T09:53:35;24.90;55.90
69328;DHT22;56472;52.114;5.492;2023-07-08T09:56:04;24.90;55.80
69328;DHT22;56472;52.114;5.492;2023-07-08T09:58:34;24.90;55.80
69328;DHT22;56472;52.114;5.492;2023-07-08T10:01:18;24.90;55.90
69328;DHT22;56472;52.114;5.492;2023-07-08T10:03:47;24.90;55.90
69328;DHT22;56472;52.114;5.492;2023-07-08T10:06:28;24.90;55.90
69328;DHT22;56472;52.114;5.492;2023-07-08T10:09:04;25.00;55.80
69328;DHT22;56472;52.114;5.492;2023-07-08T10:11:36;25.00;55.70
69328;DHT22;56472;52.114;5.492;2023-07-08T10:14:11;25.00;55.80
69328;DHT22;56472;52.114;5.492;2023-07-08T10:16:41;25.00;55.80
69328;DHT22;56472;52.114;5.492;2023-07-08T10:19:16;25.00;55.90
69328;DHT22;56472;52.114;5.492;2023-07-08T10:30:14;25.00;56.00
69328;DHT22;56472;52.114;5.492;2023-07-08T10:35:37;25.00;56.00
69328;DHT22;56472;52.114;5.492;2023-07-08T10:41:30;25.10;56.00
69328;DHT22;56472;52.114;5.492;2023-07-08T10:44:26;25.10;56.10
69328;DHT22;56472;52.114;5.492;2023-07-08T10:55:49;25.10;56.30
69328;DHT22;56472;52.114;5.492;2023-07-08T11:06:57;25.20;56.60
69328;DHT22;56472;52.114;5.492;2023-07-08T11:09:35;25.20;56.60
69328;DHT22;56472;52.114;5.492;2023-07-08T11:14:49;25.20;56.80
69328;DHT22;56472;52.114;5.492;2023-07-08T11:17:26;25.20;56.90
69328;DHT22;56472;52.114;5.492;2023-07-08T11:20:21;25.20;57.90
69328;DHT22;56472;52.114;5.492;2023-07-08T11:23:08;25.30;57.00
69328;DHT22;56472;52.114;5.492;2023-07-08T11:25:39;25.30;56.90
69328;DHT22;56472;52.114;5.492;2023-07-08T11:28:18;25.30;57.00
69328;DHT22;56472;52.114;5.492;2023-07-08T11:30:50;25.40;57.20
69328;DHT22;56472;52.114;5.492;2023-07-08T11:33:23;25.40;57.10
69328;DHT22;56472;52.114;5.492;2023-07-08T11:35:53;25.40;57.30
69328;DHT22;56472;52.114;5.492;2023-07-08T11:38:25;25.40;57.20
69328;DHT22;56472;52.114;5.492;2023-07-08T11:40:56;25.40;57.20
69328;DHT22;56472;52.114;5.492;2023-07-08T11:46:33;25.50;58.20
69328;DHT22;56472;52.114;5.492;2023-07-08T11:49:09;25.50;57.20
69328;DHT22;56472;52.114;5.492;2023-07-08T11:51:41;25.50;57.20
69328;DHT22;56472;52.114;5.492;2023-07-08T11:54:20;25.50;57.20
69328;DHT22;56472;52.114;5.492;2023-07-08T11:59:29;25.60;57.10
69328;DHT22;56472;52.114;5.492;2023-07-08T12:04:58;25.60;57.00
69328;DHT22;56472;52.114;5.492;2023-07-08T12:07:46;25.60;56.90
69328;DHT22;56472;52.114;5.492;2023-07-08T12:10:32;25.60;56.80
69328;DHT22;56472;52.114;5.492;2023-07-08T12:13:02;25.60;56.80
69328;DHT22;56472;52.114;5.492;2023-07-08T12:15:32;25.60;56.90
69328;DHT22;56472;52.114;5.492;2023-07-08T12:18:04;25.60;56.90
69328;DHT22;56472;52.114;5.492;2023-07-08T12:20:39;25.60;56.80
69328;DHT22;56472;52.114;5.492;2023-07-08T12:23:15;25.70;56.60
69328;DHT22;56472;52.114;5.492;2023-07-08T12:25:42;25.70;56.40
69328;DHT22;56472;52.114;5.492;2023-07-08T12:28:10;25.70;56.40
69328;DHT22;56472;52.114;5.492;2023-07-08T12:30:40;25.70;56.40
69328;DHT22;56472;52.114;5.492;2023-07-08T12:33:30;25.70;56.50
69328;DHT22;56472;52.114;5.492;2023-07-08T12:36:00;25.70;56.40
69328;DHT22;56472;52.114;5.492;2023-07-08T12:41:13;25.70;56.40
69328;DHT22;56472;52.114;5.492;2023-07-08T12:43:41;25.70;56.30
69328;DHT22;56472;52.114;5.492;2023-07-08T12:46:12;25.70;56.30
69328;DHT22;56472;52.114;5.492;2023-07-08T12:48:40;25.70;56.30
69328;DHT22;56472;52.114;5.492;2023-07-08T12:51:14;25.70;56.30
69328;DHT22;56472;52.114;5.492;2023-07-08T12:53:43;25.70;57.30
69328;DHT22;56472;52.114;5.492;2023-07-08T12:56:10;25.80;56.50
69328;DHT22;56472;52.114;5.492;2023-07-08T12:58:43;25.80;56.50
69328;DHT22;56472;52.114;5.492;2023-07-08T13:01:22;25.80;56.50
69328;DHT22;56472;52.114;5.492;2023-07-08T13:03:55;25.80;56.50
69328;DHT22;56472;52.114;5.492;2023-07-08T13:06:25;25.80;56.40
69328;DHT22;56472;52.114;5.492;2023-07-08T13:09:02;25.90;56.60
69328;DHT22;56472;52.114;5.492;2023-07-08T13:11:31;25.80;56.70
69328;DHT22;56472;52.114;5.492;2023-07-08T13:14:00;25.90;56.90
69328;DHT22;56472;52.114;5.492;2023-07-08T13:16:32;25.90;56.80
69328;DHT22;56472;52.114;5.492;2023-07-08T13:19:01;25.90;56.50
69328;DHT22;56472;52.114;5.492;2023-07-08T13:21:29;25.90;56.40
69328;DHT22;56472;52.114;5.492;2023-07-08T13:23:58;25.90;56.30
69328;DHT22;56472;52.114;5.492;2023-07-08T13:26:29;25.90;56.30
69328;DHT22;56472;52.114;5.492;2023-07-08T13:29:14;26.00;56.40
69328;DHT22;56472;52.114;5.492;2023-07-08T13:31:47;26.00;56.40
69328;DHT22;56472;52.114;5.492;2023-07-08T13:34:18;26.00;56.40
69328;DHT22;56472;52.114;5.492;2023-07-08T13:36:49;26.00;56.40
69328;DHT22;56472;52.114;5.492;2023-07-08T13:39:23;26.00;56.20
69328;DHT22;56472;52.114;5.492;2023-07-08T13:41:51;26.00;56.10
69328;DHT22;56472;52.114;5.492;2023-07-08T13:44:18;26.10;56.10
69328;DHT22;56472;52.114;5.492;2023-07-08T13:46:54;26.10;57.00
69328;DHT22;56472;52.114;5.492;2023-07-08T13:49:38;26.10;55.80
69328;DHT22;56472;52.114;5.492;2023-07-08T13:54:51;26.10;55.70
69328;DHT22;56472;52.114;5.492;2023-07-08T13:57:23;26.10;55.70
69328;DHT22;56472;52.114;5.492;2023-07-08T13:59:50;26.20;55.80
69328;DHT22;56472;52.114;5.492;2023-07-08T14:02:23;26.20;55.90
69328;DHT22;56472;52.114;5.492;2023-07-08T14:04:52;26.20;55.80
69328;DHT22;56472;52.114;5.492;2023-07-08T14:07:23;26.20;55.60
69328;DHT22;56472;52.114;5.492;2023-07-08T14:09:50;26.20;55.60
69328;DHT22;56472;52.114;5.492;2023-07-08T14:12:19;26.30;55.80
69328;DHT22;56472;52.114;5.492;2023-07-08T14:14:49;26.30;55.60
69328;DHT22;56472;52.114;5.492;2023-07-08T14:17:26;26.30;55.40
69328;DHT22;56472;52.114;5.492;2023-07-08T14:19:54;26.30;55.30
69328;DHT22;56472;52.114;5.492;2023-07-08T14:22:29;26.30;55.20
69328;DHT22;56472;52.114;5.492;2023-07-08T14:25:04;26.30;55.10
69328;DHT22;56472;52.114;5.492;2023-07-08T14:27:32;26.30;55.30
69328;DHT22;56472;52.114;5.492;2023-07-08T14:29:59;26.40;55.70
69328;DHT22;56472;52.114;5.492;2023-07-08T14:32:28;26.40;55.50
69328;DHT22;56472;52.114;5.492;2023-07-08T14:35:22;26.40;55.30
69328;DHT22;56472;52.114;5.492;2023-07-08T14:37:50;26.50;55.10
69328;DHT22;56472;52.114;5.492;2023-07-08T14:40:25;26.40;55.10
69328;DHT22;56472;52.114;5.492;2023-07-08T14:43:05;26.50;55.10
69328;DHT22;56472;52.114;5.492;2023-07-08T14:45:41;26.50;55.10
69328;DHT22;56472;52.114;5.492;2023-07-08T14:48:11;26.40;54.90
69328;DHT22;56472;52.114;5.492;2023-07-08T14:50:40;26.50;54.70
69328;DHT22;56472;52.114;5.492;2023-07-08T14:53:07;26.50;54.60
69328;DHT22;56472;52.114;5.492;2023-07-08T14:55:35;26.50;54.50
69328;DHT22;56472;52.114;5.492;2023-07-08T14:58:03;26.60;54.60
69328;DHT22;56472;52.114;5.492;2023-07-08T15:00:30;26.50;54.60
69328;DHT22;56472;52.114;5.492;2023-07-08T15:02:57;26.60;54.80
69328;DHT22;56472;52.114;5.492;2023-07-08T15:05:26;26.60;54.60
69328;DHT22;56472;52.114;5.492;2023-07-08T15:07:57;26.60;54.60
69328;DHT22;56472;52.114;5.492;2023-07-08T15:10:26;26.60;54.50
69328;DHT22;56472;52.114;5.492;2023-07-08T15:12:55;26.60;55.40
69328;DHT22;56472;52.114;5.492;2023-07-08T15:15:31;26.60;54.40
69328;DHT22;56472;52.114;5.492;2023-07-08T15:17:59;26.60;54.20
69328;DHT22;56472;52.114;5.492;2023-07-08T15:20:28;26.60;54.30
69328;DHT22;56472;52.114;5.492;2023-07-08T15:22:55;26.60;54.50
69328;DHT22;56472;52.114;5.492;2023-07-08T15:25:22;26.70;54.90
69328;DHT22;56472;52.114;5.492;2023-07-08T15:27:52;26.70;55.10
69328;DHT22;56472;52.114;5.492;2023-07-08T15:30:25;26.70;55.10
69328;DHT22;56472;52.114;5.492;2023-07-08T15:32:53;26.70;55.00
69328;DHT22;56472;52.114;5.492;2023-07-08T15:35:27;26.70;54.80
69328;DHT22;56472;52.114;5.492;2023-07-08T15:37:59;26.70;54.90
69328;DHT22;56472;52.114;5.492;2023-07-08T15:40:31;26.80;55.00
69328;DHT22;56472;52.114;5.492;2023-07-08T15:43:01;26.80;55.10
69328;DHT22;56472;52.114;5.492;2023-07-08T15:45:34;26.80;55.00
69328;DHT22;56472;52.114;5.492;2023-07-08T15:48:01;26.80;54.80
69328;DHT22;56472;52.114;5.492;2023-07-08T15:50:28;26.80;55.00
69328;DHT22;56472;52.114;5.492;2023-07-08T15:52:56;26.80;55.10
69328;DHT22;56472;52.114;5.492;2023-07-08T15:55:30;26.80;55.20
69328;DHT22;56472;52.114;5.492;2023-07-08T16:00:41;26.80;55.10
69328;DHT22;56472;52.114;5.492;2023-07-08T16:03:23;26.80;55.10
69328;DHT22;56472;52.114;5.492;2023-07-08T16:05:52;26.80;55.00
69328;DHT22;56472;52.114;5.492;2023-07-08T16:08:20;26.80;55.10
69328;DHT22;56472;52.114;5.492;2023-07-08T16:10:51;26.70;55.40
69328;DHT22;56472;52.114;5.492;2023-07-08T16:13:30;26.70;55.70
69328;DHT22;56472;52.114;5.492;2023-07-08T16:15:59;26.70;56.10
69328;DHT22;56472;52.114;5.492;2023-07-08T16:18:26;26.70;56.40
69328;DHT22;56472;52.114;5.492;2023-07-08T16:20:53;26.70;56.60
69328;DHT22;56472;52.114;5.492;2023-07-08T16:23:20;26.70;56.70
69328;DHT22;56472;52.114;5.492;2023-07-08T16:25:49;26.70;57.20
69328;DHT22;56472;52.114;5.492;2023-07-08T16:30:54;26.70;58.20
69328;DHT22;56472;52.114;5.492;2023-07-08T16:33:22;26.70;58.40
69328;DHT22;56472;52.114;5.492;2023-07-08T16:35:49;26.70;58.60
69328;DHT22;56472;52.114;5.492;2023-07-08T16:38:16;26.70;58.60
69328;DHT22;56472;52.114;5.492;2023-07-08T16:40:43;26.70;58.70
69328;DHT22;56472;52.114;5.492;2023-07-08T16:43:30;26.70;58.80
69328;DHT22;56472;52.114;5.492;2023-07-08T16:46:00;26.70;59.20
69328;DHT22;56472;52.114;5.492;2023-07-08T16:48:27;26.70;59.60
69328;DHT22;56472;52.114;5.492;2023-07-08T16:50:54;26.70;60.40
69328;DHT22;56472;52.114;5.492;2023-07-08T16:53:21;26.70;60.90
69328;DHT22;56472;52.114;5.492;2023-07-08T16:55:49;26.70;61.10
69328;DHT22;56472;52.114;5.492;2023-07-08T16:58:16;26.70;61.40
69328;DHT22;56472;52.114;5.492;2023-07-08T17:00:44;26.70;61.70